Time;durP1;ratioP1;P1;durP2;ratioP2;P2;SDS_P1;SDS_P2;PMS_P1;PMS_P2;Temp;Humidity;BMP_temperature;BMP_pressure;BME280_temperature;BME280_humidity;BME280_pressure;Samples;Min_cycle;Max_cycle;Signal;HPM_P1;HPM_P2
2021/01/10 00:02:15;;;;;;;;;;;2.40;73.60;;;;;;4911093;28;19930;-42
2021/01/10 00:04:42;;;;;;;;;;;2.40;73.70;;;;;;4917892;28;19952;-42
2021/01/10 00:07:08;;;;;;;;;;;2.40;73.80;;;;;;4910833;28;19934;-44
2021/01/10 00:09:34;;;;;;;;;;;2.40;73.80;;;;;;4903574;28;19935;-45
2021/01/10 00:12:00;;;;;;;;;;;2.40;73.70;;;;;;4910301;28;19938;-44
2021/01/10 00:14:26;;;;;;;;;;;2.40;73.80;;;;;;4914027;28;20040;-45
2021/01/10 00:16:53;;;;;;;;;;;2.40;73.80;;;;;;4908494;28;19941;-45
2021/01/10 00:19:19;;;;;;;;;;;2.40;73.70;;;;;;4908842;28;20390;-43
2021/01/10 00:21:45;;;;;;;;;;;2.40;73.80;;;;;;4912115;28;19937;-44
2021/01/10 00:24:11;;;;;;;;;;;2.40;74.00;;;;;;4910063;28;20659;-45
2021/01/10 00:26:38;;;;;;;;;;;2.40;74.10;;;;;;4904066;28;20025;-46
2021/01/10 00:29:07;;;;;;;;;;;2.40;74.20;;;;;;4917332;28;19942;-45
2021/01/10 00:31:34;;;;;;;;;;;2.40;74.20;;;;;;4909259;28;19970;-44
2021/01/10 00:34:02;;;;;;;;;;;2.40;74.10;;;;;;4918957;28;20425;-45
2021/01/10 00:36:35;;;;;;;;;;;2.40;74.00;;;;;;4909298;28;19937;-43
2021/01/10 00:39:02;;;;;;;;;;;2.40;73.70;;;;;;4911705;28;19997;-44
2021/01/10 00:41:34;;;;;;;;;;;2.40;73.50;;;;;;4908654;28;19934;-44
2021/01/10 00:44:01;;;;;;;;;;;2.40;73.50;;;;;;4906260;28;20013;-45
2021/01/10 00:46:30;;;;;;;;;;;2.40;73.60;;;;;;4911250;28;19961;-45
2021/01/10 00:48:56;;;;;;;;;;;2.40;73.60;;;;;;4909733;28;19926;-42
2021/01/10 00:51:25;;;;;;;;;;;2.40;73.70;;;;;;4904747;28;20276;-45
2021/01/10 00:53:52;;;;;;;;;;;2.40;73.70;;;;;;4910774;28;19930;-43
2021/01/10 00:56:18;;;;;;;;;;;2.40;73.70;;;;;;4922007;28;19934;-43
2021/01/10 00:58:44;;;;;;;;;;;2.40;73.70;;;;;;4906480;28;19931;-44
2021/01/10 01:01:10;;;;;;;;;;;2.40;73.80;;;;;;4918565;28;19937;-46
2021/01/10 01:03:37;;;;;;;;;;;2.40;73.80;;;;;;4911705;28;20297;-46
2021/01/10 01:06:04;;;;;;;;;;;2.40;73.80;;;;;;4913421;28;23768;-44
2021/01/10 01:08:30;;;;;;;;;;;2.40;73.80;;;;;;4912046;28;19933;-44
2021/01/10 01:10:56;;;;;;;;;;;2.40;73.80;;;;;;4919701;28;19926;-43
2021/01/10 01:13:23;;;;;;;;;;;2.40;73.80;;;;;;4914823;28;20375;-43
2021/01/10 01:15:52;;;;;;;;;;;2.40;73.80;;;;;;4915358;28;19933;-44
2021/01/10 01:18:21;;;;;;;;;;;2.40;73.90;;;;;;4910601;28;20414;-45
2021/01/10 01:20:50;;;;;;;;;;;2.40;74.00;;;;;;4912809;28;20374;-43
2021/01/10 01:23:17;;;;;;;;;;;2.40;74.00;;;;;;4915343;28;20406;-45
2021/01/10 01:25:46;;;;;;;;;;;2.40;74.00;;;;;;4913546;28;20275;-43
2021/01/10 01:28:12;;;;;;;;;;;2.40;73.80;;;;;;4910688;28;19936;-44
2021/01/10 01:30:38;;;;;;;;;;;2.40;73.70;;;;;;4905552;28;19972;-46
2021/01/10 01:33:04;;;;;;;;;;;2.40;73.60;;;;;;4905362;28;19933;-41
2021/01/10 01:35:31;;;;;;;;;;;2.40;73.80;;;;;;4917542;28;19927;-42
2021/01/10 01:37:57;;;;;;;;;;;2.30;74.00;;;;;;4908763;28;20024;-44
2021/01/10 01:40:23;;;;;;;;;;;2.30;74.10;;;;;;4910171;28;20261;-44
2021/01/10 01:42:50;;;;;;;;;;;2.30;74.00;;;;;;4915163;28;19932;-44
2021/01/10 01:45:16;;;;;;;;;;;2.30;74.10;;;;;;4915307;28;19930;-45
2021/01/10 01:47:43;;;;;;;;;;;2.30;74.10;;;;;;4911768;28;19934;-45
2021/01/10 01:50:11;;;;;;;;;;;2.20;74.20;;;;;;4914486;28;20305;-43
2021/01/10 01:52:39;;;;;;;;;;;2.20;74.20;;;;;;4912879;28;19933;-43
2021/01/10 01:55:05;;;;;;;;;;;2.20;74.20;;;;;;4912883;28;19926;-44
2021/01/10 01:57:31;;;;;;;;;;;2.20;74.30;;;;;;4914619;28;19934;-45
2021/01/10 01:59:58;;;;;;;;;;;2.20;74.20;;;;;;4910945;28;19965;-45
2021/01/10 02:02:24;;;;;;;;;;;2.20;74.20;;;;;;4909046;28;20289;-43
2021/01/10 02:04:54;;;;;;;;;;;2.20;74.30;;;;;;4917309;28;19945;-45
2021/01/10 02:07:26;;;;;;;;;;;2.20;74.40;;;;;;4911446;28;19934;-46
2021/01/10 02:10:05;;;;;;;;;;;2.20;74.50;;;;;;4910742;28;20244;-44
2021/01/10 02:12:32;;;;;;;;;;;2.10;74.50;;;;;;4907886;28;21031;-44
2021/01/10 02:15:07;;;;;;;;;;;2.10;74.60;;;;;;4912067;28;19934;-46
2021/01/10 02:17:33;;;;;;;;;;;2.10;74.80;;;;;;4915660;28;19949;-43
2021/01/10 02:20:00;;;;;;;;;;;2.10;74.80;;;;;;4905446;28;19941;-44
2021/01/10 02:22:38;;;;;;;;;;;2.10;74.80;;;;;;4910068;28;20628;-45
2021/01/10 02:25:05;;;;;;;;;;;2.10;74.70;;;;;;4910957;28;20370;-45
2021/01/10 02:27:31;;;;;;;;;;;2.00;74.70;;;;;;4913246;28;19934;-45
2021/01/10 02:29:58;;;;;;;;;;;2.00;74.80;;;;;;4909463;28;19930;-42
2021/01/10 02:32:26;;;;;;;;;;;2.00;74.80;;;;;;4915481;28;20410;-44
2021/01/10 02:34:54;;;;;;;;;;;2.00;74.70;;;;;;4914143;28;19934;-45
2021/01/10 02:37:20;;;;;;;;;;;1.90;74.60;;;;;;4915125;28;19933;-42
2021/01/10 02:39:58;;;;;;;;;;;1.90;74.40;;;;;;4912670;28;20017;-43
2021/01/10 02:42:27;;;;;;;;;;;1.90;74.50;;;;;;4906225;28;19938;-45
2021/01/10 02:45:03;;;;;;;;;;;1.90;74.60;;;;;;4911345;28;19932;-43
2021/01/10 02:47:30;;;;;;;;;;;1.90;74.70;;;;;;4914662;28;20507;-45
2021/01/10 02:49:57;;;;;;;;;;;1.80;74.70;;;;;;4912738;28;20363;-42
2021/01/10 02:52:23;;;;;;;;;;;1.80;74.80;;;;;;4909221;28;19934;-45
2021/01/10 02:54:50;;;;;;;;;;;1.80;74.80;;;;;;4915593;28;19930;-45
2021/01/10 02:57:30;;;;;;;;;;;1.80;74.80;;;;;;4913343;28;20449;-44
2021/01/10 02:59:57;;;;;;;;;;;1.80;74.80;;;;;;4912407;28;19933;-42
2021/01/10 03:02:25;;;;;;;;;;;1.80;74.80;;;;;;4906525;28;19934;-44
2021/01/10 03:04:51;;;;;;;;;;;1.70;74.80;;;;;;4908888;28;20382;-44
2021/01/10 03:07:18;;;;;;;;;;;1.70;74.80;;;;;;4915358;28;19930;-42
2021/01/10 03:09:44;;;;;;;;;;;1.70;74.70;;;;;;4913963;28;20014;-44
2021/01/10 03:12:14;;;;;;;;;;;1.70;74.80;;;;;;4911289;28;19944;-44
2021/01/10 03:14:44;;;;;;;;;;;1.70;74.70;;;;;;4910565;28;20626;-45
2021/01/10 03:17:39;;;;;;;;;;;1.60;74.70;;;;;;4908607;28;21718;-43
2021/01/10 03:20:07;;;;;;;;;;;1.60;74.80;;;;;;4904121;28;19930;-45
2021/01/10 03:22:33;;;;;;;;;;;1.60;74.90;;;;;;4906327;28;19937;-45
2021/01/10 03:25:01;;;;;;;;;;;1.60;74.90;;;;;;4903126;28;19927;-44
2021/01/10 03:27:27;;;;;;;;;;;1.50;74.80;;;;;;4926467;28;20363;-44
2021/01/10 03:29:53;;;;;;;;;;;1.50;74.80;;;;;;4914952;28;19982;-45
2021/01/10 03:32:20;;;;;;;;;;;1.50;74.90;;;;;;4906137;28;21035;-45
2021/01/10 03:34:46;;;;;;;;;;;1.50;75.00;;;;;;4909179;28;19941;-43
2021/01/10 03:37:13;;;;;;;;;;;1.40;74.90;;;;;;4914292;28;19936;-44
2021/01/10 03:39:39;;;;;;;;;;;1.40;74.80;;;;;;4916860;28;20294;-43
2021/01/10 03:42:07;;;;;;;;;;;1.40;74.80;;;;;;4911109;28;19929;-42
2021/01/10 03:44:34;;;;;;;;;;;1.40;74.80;;;;;;4912474;28;20292;-44
2021/01/10 03:47:00;;;;;;;;;;;1.40;74.90;;;;;;4914302;28;19930;-42
2021/01/10 03:49:26;;;;;;;;;;;1.30;75.00;;;;;;4910183;28;20629;-43
2021/01/10 03:51:52;;;;;;;;;;;1.30;75.00;;;;;;4910319;28;19941;-44
2021/01/10 03:54:19;;;;;;;;;;;1.30;75.00;;;;;;4904999;28;19934;-44
2021/01/10 03:56:47;;;;;;;;;;;1.30;75.20;;;;;;4912430;28;19934;-43
2021/01/10 03:59:13;;;;;;;;;;;1.30;75.20;;;;;;4909183;28;19940;-44
2021/01/10 04:01:39;;;;;;;;;;;1.30;75.20;;;;;;4911181;28;20029;-43
2021/01/10 04:04:06;;;;;;;;;;;1.30;75.30;;;;;;4902967;28;19934;-45
2021/01/10 04:06:32;;;;;;;;;;;1.20;75.30;;;;;;4913891;28;19930;-44
2021/01/10 04:08:58;;;;;;;;;;;1.20;75.30;;;;;;4915122;28;19933;-42
2021/01/10 04:11:25;;;;;;;;;;;1.20;75.20;;;;;;4911442;28;19934;-45
2021/01/10 04:13:51;;;;;;;;;;;1.20;75.10;;;;;;4913581;28;20325;-44
2021/01/10 04:16:17;;;;;;;;;;;1.20;75.00;;;;;;4915073;28;19935;-44
2021/01/10 04:18:44;;;;;;;;;;;1.20;75.00;;;;;;4909097;28;20377;-45
2021/01/10 04:21:10;;;;;;;;;;;1.20;75.10;;;;;;4908497;28;19938;-44
2021/01/10 04:23:36;;;;;;;;;;;1.20;75.20;;;;;;4907147;28;19930;-45
2021/01/10 04:26:03;;;;;;;;;;;1.10;75.20;;;;;;4930564;28;19926;-45
2021/01/10 04:28:30;;;;;;;;;;;1.10;75.40;;;;;;4907933;28;19926;-44
2021/01/10 04:30:56;;;;;;;;;;;1.10;75.40;;;;;;4909147;28;21117;-44
2021/01/10 04:33:23;;;;;;;;;;;1.10;75.40;;;;;;4915823;28;20386;-43
2021/01/10 04:35:50;;;;;;;;;;;1.10;75.40;;;;;;4914979;28;19934;-45
2021/01/10 04:38:16;;;;;;;;;;;1.10;75.30;;;;;;4914344;28;19969;-45
2021/01/10 04:40:43;;;;;;;;;;;1.10;75.30;;;;;;4906583;28;19940;-44
2021/01/10 04:43:10;;;;;;;;;;;1.10;75.40;;;;;;4909789;28;20020;-45
2021/01/10 04:45:37;;;;;;;;;;;1.10;75.40;;;;;;4918964;28;20370;-43
2021/01/10 04:48:05;;;;;;;;;;;1.10;75.50;;;;;;4912597;28;19930;-44
2021/01/10 04:50:33;;;;;;;;;;;1.10;75.50;;;;;;4913893;28;19934;-45
2021/01/10 04:53:03;;;;;;;;;;;1.10;75.50;;;;;;4912907;28;19934;-44
2021/01/10 04:55:30;;;;;;;;;;;1.10;75.60;;;;;;4910142;28;19926;-44
2021/01/10 04:58:04;;;;;;;;;;;1.10;75.50;;;;;;4917508;28;19926;-43
2021/01/10 05:00:31;;;;;;;;;;;1.10;75.50;;;;;;4912214;28;20274;-44
2021/01/10 05:03:05;;;;;;;;;;;1.10;75.50;;;;;;4907731;28;19927;-44
2021/01/10 05:05:34;;;;;;;;;;;1.10;75.70;;;;;;4913510;28;19934;-44
2021/01/10 05:08:03;;;;;;;;;;;1.10;75.80;;;;;;4909787;28;20437;-44
2021/01/10 05:10:30;;;;;;;;;;;1.10;75.80;;;;;;4925026;28;19930;-44
2021/01/10 05:12:56;;;;;;;;;;;1.10;75.80;;;;;;4916085;28;19937;-44
2021/01/10 05:15:22;;;;;;;;;;;1.10;75.80;;;;;;4928839;28;19930;-44
2021/01/10 05:17:52;;;;;;;;;;;1.10;75.90;;;;;;4913584;28;20065;-45
2021/01/10 05:20:19;;;;;;;;;;;1.10;76.00;;;;;;4910319;28;19941;-43
2021/01/10 05:22:48;;;;;;;;;;;1.10;76.00;;;;;;4907603;28;19941;-44
2021/01/10 05:25:14;;;;;;;;;;;1.10;75.90;;;;;;4913212;28;19930;-44
2021/01/10 05:27:41;;;;;;;;;;;1.10;75.80;;;;;;4913154;28;19931;-45
2021/01/10 05:30:07;;;;;;;;;;;1.10;75.80;;;;;;4909467;28;19941;-45
2021/01/10 05:32:33;;;;;;;;;;;1.10;75.80;;;;;;4924467;28;20429;-44
2021/01/10 05:35:02;;;;;;;;;;;1.10;75.80;;;;;;4906072;28;19934;-45
2021/01/10 05:37:29;;;;;;;;;;;1.10;75.80;;;;;;4913995;28;20809;-45
2021/01/10 05:39:56;;;;;;;;;;;1.10;75.80;;;;;;4912600;28;20414;-44
2021/01/10 05:42:31;;;;;;;;;;;1.10;75.80;;;;;;4910755;28;20602;-45
2021/01/10 05:44:59;;;;;;;;;;;1.10;75.70;;;;;;4908062;28;19926;-43
2021/01/10 05:47:36;;;;;;;;;;;1.10;75.80;;;;;;4897822;28;19934;-45
2021/01/10 05:50:12;;;;;;;;;;;1.10;75.80;;;;;;4910742;28;19930;-45
2021/01/10 05:52:42;;;;;;;;;;;1.10;75.90;;;;;;4914165;28;19926;-43
2021/01/10 05:55:10;;;;;;;;;;;1.10;76.00;;;;;;4909541;28;22868;-44
2021/01/10 05:57:36;;;;;;;;;;;1.10;76.00;;;;;;4908819;28;19961;-45
2021/01/10 06:00:04;;;;;;;;;;;1.10;75.90;;;;;;4912009;28;19926;-43
2021/01/10 06:02:31;;;;;;;;;;;1.10;75.80;;;;;;4918627;28;19933;-44
2021/01/10 06:05:16;;;;;;;;;;;1.10;75.80;;;;;;4914851;28;19934;-42
2021/01/10 06:07:43;;;;;;;;;;;1.10;75.90;;;;;;4916643;28;19937;-44
2021/01/10 06:10:12;;;;;;;;;;;1.10;76.00;;;;;;4908087;28;21433;-44
2021/01/10 06:12:39;;;;;;;;;;;1.10;76.10;;;;;;4909127;28;19927;-44
2021/01/10 06:15:08;;;;;;;;;;;1.10;76.20;;;;;;4913428;28;20394;-44
2021/01/10 06:17:46;;;;;;;;;;;1.20;76.30;;;;;;4911400;28;20354;-45
2021/01/10 06:20:18;;;;;;;;;;;1.10;76.30;;;;;;4913075;28;19930;-45
2021/01/10 06:22:49;;;;;;;;;;;1.20;76.20;;;;;;4911047;28;20342;-44
2021/01/10 06:25:18;;;;;;;;;;;1.10;76.30;;;;;;4913953;28;19930;-44
2021/01/10 06:27:46;;;;;;;;;;;1.20;76.50;;;;;;4913387;28;19926;-45
2021/01/10 06:30:15;;;;;;;;;;;1.20;76.70;;;;;;4909454;28;19934;-45
2021/01/10 06:32:44;;;;;;;;;;;1.20;76.70;;;;;;4909769;28;21724;-43
2021/01/10 06:35:11;;;;;;;;;;;1.20;76.50;;;;;;4912309;28;20371;-44
2021/01/10 06:37:39;;;;;;;;;;;1.20;76.50;;;;;;4915020;28;20459;-45
2021/01/10 06:40:08;;;;;;;;;;;1.20;76.40;;;;;;4911300;28;20450;-43
2021/01/10 06:42:37;;;;;;;;;;;1.20;76.50;;;;;;4911196;28;19933;-42
2021/01/10 06:45:05;;;;;;;;;;;1.30;76.50;;;;;;4908597;28;20009;-45
2021/01/10 06:47:31;;;;;;;;;;;1.30;76.50;;;;;;4912561;28;21288;-43
2021/01/10 06:49:57;;;;;;;;;;;1.30;76.50;;;;;;4906128;28;19933;-44
2021/01/10 06:52:27;;;;;;;;;;;1.30;76.60;;;;;;4899141;28;20749;-46
2021/01/10 06:54:54;;;;;;;;;;;1.30;76.70;;;;;;4909617;28;20005;-45
2021/01/10 06:57:29;;;;;;;;;;;1.30;76.70;;;;;;4909013;28;22051;-45
2021/01/10 07:00:01;;;;;;;;;;;1.30;76.70;;;;;;4911776;28;19984;-44
2021/01/10 07:02:27;;;;;;;;;;;1.30;76.70;;;;;;4908962;28;19934;-44
2021/01/10 07:04:55;;;;;;;;;;;1.30;76.60;;;;;;4909704;28;19933;-44
2021/01/10 07:07:31;;;;;;;;;;;1.30;76.50;;;;;;4908749;28;20390;-44
2021/01/10 07:09:57;;;;;;;;;;;1.30;76.40;;;;;;4908857;28;19926;-42
2021/01/10 07:12:24;;;;;;;;;;;1.30;76.40;;;;;;4911969;28;19934;-46
2021/01/10 07:14:50;;;;;;;;;;;1.40;76.50;;;;;;4918026;28;19937;-45
2021/01/10 07:17:18;;;;;;;;;;;1.40;76.40;;;;;;4911610;28;20020;-44
2021/01/10 07:19:48;;;;;;;;;;;1.40;76.40;;;;;;4907300;28;19937;-44
2021/01/10 07:22:26;;;;;;;;;;;1.40;76.60;;;;;;4909254;28;19974;-45
2021/01/10 07:24:53;;;;;;;;;;;1.40;76.60;;;;;;4903615;28;19930;-45
2021/01/10 07:27:30;;;;;;;;;;;1.40;76.60;;;;;;4912800;28;20014;-45
2021/01/10 07:29:58;;;;;;;;;;;1.40;76.70;;;;;;4911631;28;20554;-45
2021/01/10 07:32:33;;;;;;;;;;;1.40;76.70;;;;;;4905022;28;20387;-43
2021/01/10 07:35:02;;;;;;;;;;;1.40;76.70;;;;;;4913100;28;19933;-45
2021/01/10 07:37:29;;;;;;;;;;;1.40;76.70;;;;;;4927119;28;19934;-44
2021/01/10 07:39:56;;;;;;;;;;;1.40;76.70;;;;;;4905523;28;19934;-42
2021/01/10 07:42:25;;;;;;;;;;;1.40;76.70;;;;;;4898001;28;20001;-44
2021/01/10 07:44:55;;;;;;;;;;;1.40;76.60;;;;;;4902177;28;20394;-45
2021/01/10 07:47:34;;;;;;;;;;;1.40;76.50;;;;;;4909024;28;19941;-45
2021/01/10 07:50:05;;;;;;;;;;;1.40;76.50;;;;;;4919185;28;19926;-43
2021/01/10 07:52:49;;;;;;;;;;;1.50;76.60;;;;;;4909829;28;19933;-44
2021/01/10 07:55:33;;;;;;;;;;;1.50;76.70;;;;;;4912364;28;19934;-45
2021/01/10 07:58:25;;;;;;;;;;;1.50;76.80;;;;;;4912019;28;19965;-44
2021/01/10 08:00:52;;;;;;;;;;;1.50;76.80;;;;;;4907973;28;20284;-45
2021/01/10 08:03:23;;;;;;;;;;;1.50;76.70;;;;;;4922714;28;19942;-45
2021/01/10 08:05:59;;;;;;;;;;;1.50;76.80;;;;;;4922107;28;23372;-45
2021/01/10 08:08:31;;;;;;;;;;;1.50;76.70;;;;;;4914698;28;20362;-46
2021/01/10 08:11:00;;;;;;;;;;;1.60;76.70;;;;;;4910795;28;19933;-44
2021/01/10 08:13:26;;;;;;;;;;;1.60;76.70;;;;;;4912807;28;19973;-44
2021/01/10 08:15:53;;;;;;;;;;;1.60;76.70;;;;;;4910776;28;19942;-44
2021/01/10 08:18:22;;;;;;;;;;;1.60;76.70;;;;;;4916858;28;19933;-42
2021/01/10 08:20:52;;;;;;;;;;;1.70;76.70;;;;;;4910809;28;19930;-45
2021/01/10 08:23:18;;;;;;;;;;;1.70;76.70;;;;;;4922655;28;19933;-44
2021/01/10 08:25:45;;;;;;;;;;;1.60;76.80;;;;;;4912322;28;19941;-44
2021/01/10 08:28:15;;;;;;;;;;;1.60;77.00;;;;;;4909368;28;20451;-42
2021/01/10 08:30:42;;;;;;;;;;;1.60;76.90;;;;;;4912863;28;19934;-43
2021/01/10 08:33:08;;;;;;;;;;;1.70;76.90;;;;;;4931326;28;19926;-44
2021/01/10 08:35:35;;;;;;;;;;;1.70;76.90;;;;;;4904625;28;20016;-44
2021/01/10 08:38:01;;;;;;;;;;;1.70;76.90;;;;;;4909307;28;19926;-46
2021/01/10 08:40:28;;;;;;;;;;;1.80;76.90;;;;;;4914306;28;19978;-43
2021/01/10 08:43:01;;;;;;;;;;;1.80;77.10;;;;;;4906670;28;20406;-46
2021/01/10 08:45:27;;;;;;;;;;;1.80;76.90;;;;;;4915280;28;19941;-43
2021/01/10 08:47:54;;;;;;;;;;;1.90;76.90;;;;;;4915058;28;19941;-45
2021/01/10 08:50:23;;;;;;;;;;;2.00;76.90;;;;;;4930249;28;19926;-43
2021/01/10 08:52:59;;;;;;;;;;;2.00;76.70;;;;;;4915667;28;19926;-43
2021/01/10 08:55:32;;;;;;;;;;;2.00;76.50;;;;;;4909240;28;19997;-43
2021/01/10 08:57:59;;;;;;;;;;;2.10;76.50;;;;;;4914416;28;19957;-44
2021/01/10 09:00:25;;;;;;;;;;;2.10;76.30;;;;;;4906907;28;20223;-44
2021/01/10 09:02:52;;;;;;;;;;;2.20;76.20;;;;;;4928645;28;19930;-43
2021/01/10 09:05:27;;;;;;;;;;;2.20;76.10;;;;;;4910016;28;20442;-45
2021/01/10 09:07:57;;;;;;;;;;;2.20;76.20;;;;;;4915071;28;19934;-43
2021/01/10 09:10:25;;;;;;;;;;;2.20;76.30;;;;;;4914256;28;19926;-44
2021/01/10 09:12:57;;;;;;;;;;;2.30;76.10;;;;;;4915757;28;19961;-44
2021/01/10 09:15:32;;;;;;;;;;;2.40;76.10;;;;;;4915115;28;19964;-43
2021/01/10 09:18:02;;;;;;;;;;;2.40;76.10;;;;;;4913199;28;20004;-45
2021/01/10 09:20:33;;;;;;;;;;;2.50;75.70;;;;;;4908838;28;23784;-44
2021/01/10 09:23:05;;;;;;;;;;;2.50;75.70;;;;;;4912328;28;19934;-45
2021/01/10 09:25:32;;;;;;;;;;;2.40;75.80;;;;;;4914378;28;19930;-45
2021/01/10 09:28:05;;;;;;;;;;;2.50;75.80;;;;;;4913378;28;19941;-45
2021/01/10 09:30:32;;;;;;;;;;;2.50;75.90;;;;;;4911082;28;19930;-44
2021/01/10 09:33:00;;;;;;;;;;;2.60;75.80;;;;;;4909240;28;19976;-45
2021/01/10 09:35:26;;;;;;;;;;;2.70;75.60;;;;;;4911597;28;19943;-45
2021/01/10 09:37:52;;;;;;;;;;;2.60;75.60;;;;;;4916367;28;20315;-46
2021/01/10 09:40:19;;;;;;;;;;;2.70;75.60;;;;;;4903313;28;20016;-46
2021/01/10 09:42:46;;;;;;;;;;;2.70;75.60;;;;;;4912681;28;19934;-42
2021/01/10 09:45:13;;;;;;;;;;;2.80;75.50;;;;;;4908617;28;19934;-45
2021/01/10 09:47:48;;;;;;;;;;;2.90;75.30;;;;;;4911724;28;19926;-43
2021/01/10 09:50:19;;;;;;;;;;;2.90;75.20;;;;;;4911257;28;19934;-43
2021/01/10 09:52:50;;;;;;;;;;;2.90;74.90;;;;;;4909764;28;20259;-43
2021/01/10 09:55:17;;;;;;;;;;;3.00;74.70;;;;;;4912356;28;21506;-44
2021/01/10 09:57:43;;;;;;;;;;;3.10;74.30;;;;;;4905308;28;19926;-44
2021/01/10 10:00:14;;;;;;;;;;;3.30;74.10;;;;;;4916777;28;20052;-44
2021/01/10 10:02:41;;;;;;;;;;;3.50;73.20;;;;;;4909205;28;19937;-44
2021/01/10 10:05:10;;;;;;;;;;;3.60;72.90;;;;;;4909578;28;20049;-45
2021/01/10 10:07:59;;;;;;;;;;;3.80;71.80;;;;;;4925872;28;19937;-44
2021/01/10 10:10:29;;;;;;;;;;;3.90;71.80;;;;;;4910458;28;19941;-46
2021/01/10 10:13:04;;;;;;;;;;;4.00;71.20;;;;;;4914150;28;19937;-45
2021/01/10 10:15:33;;;;;;;;;;;4.20;70.60;;;;;;4916481;28;19926;-43
2021/01/10 10:18:00;;;;;;;;;;;4.30;69.90;;;;;;4914648;28;19930;-46
2021/01/10 10:20:26;;;;;;;;;;;4.40;69.10;;;;;;4914743;28;20112;-42
2021/01/10 10:22:53;;;;;;;;;;;4.40;68.90;;;;;;4912463;28;19926;-44
2021/01/10 10:25:19;;;;;;;;;;;4.50;69.00;;;;;;4919778;28;19926;-45
2021/01/10 10:27:54;;;;;;;;;;;4.50;68.60;;;;;;4915430;28;19926;-45
2021/01/10 10:30:20;;;;;;;;;;;4.50;68.10;;;;;;4908426;28;19926;-46
2021/01/10 10:32:46;;;;;;;;;;;4.50;67.80;;;;;;4907466;28;19934;-44
2021/01/10 10:35:13;;;;;;;;;;;4.60;67.90;;;;;;4910268;28;20275;-44
2021/01/10 10:37:39;;;;;;;;;;;4.60;67.70;;;;;;4914348;28;19953;-44
2021/01/10 10:40:06;;;;;;;;;;;4.50;67.40;;;;;;4901130;28;19942;-43
2021/01/10 10:42:32;;;;;;;;;;;4.40;67.40;;;;;;4910571;28;20016;-45
2021/01/10 10:45:00;;;;;;;;;;;4.40;67.50;;;;;;4908811;28;20465;-43
2021/01/10 10:47:26;;;;;;;;;;;4.30;67.10;;;;;;4925042;28;20020;-46
2021/01/10 10:49:54;;;;;;;;;;;4.30;67.20;;;;;;4906655;28;19934;-42
2021/01/10 10:52:20;;;;;;;;;;;4.20;66.80;;;;;;4908084;28;19934;-45
2021/01/10 10:54:46;;;;;;;;;;;4.20;66.70;;;;;;4903275;28;19932;-44
2021/01/10 10:57:12;;;;;;;;;;;4.20;67.10;;;;;;4912652;28;19944;-46
2021/01/10 10:59:39;;;;;;;;;;;4.20;67.20;;;;;;4907496;28;23667;-43
2021/01/10 11:02:09;;;;;;;;;;;4.20;67.20;;;;;;4907010;28;19970;-45
2021/01/10 11:04:38;;;;;;;;;;;4.20;67.30;;;;;;4909173;28;20013;-44
2021/01/10 11:07:05;;;;;;;;;;;4.20;67.40;;;;;;4908238;28;20549;-45
2021/01/10 11:09:31;;;;;;;;;;;4.20;67.10;;;;;;4912630;28;19985;-44
2021/01/10 11:11:58;;;;;;;;;;;4.20;66.80;;;;;;4904850;28;19945;-43
2021/01/10 11:14:24;;;;;;;;;;;4.20;66.70;;;;;;4909070;28;19957;-44
2021/01/10 11:16:52;;;;;;;;;;;4.20;66.40;;;;;;4915332;28;20021;-45
2021/01/10 11:19:20;;;;;;;;;;;4.30;64.90;;;;;;4914239;28;20412;-45
2021/01/10 11:21:47;;;;;;;;;;;4.30;64.00;;;;;;4924943;28;19934;-44
2021/01/10 11:24:13;;;;;;;;;;;4.30;64.80;;;;;;4914826;28;19937;-46
2021/01/10 11:26:43;;;;;;;;;;;4.30;64.60;;;;;;4921863;28;20432;-44
2021/01/10 11:29:10;;;;;;;;;;;4.30;64.60;;;;;;4913089;28;20386;-45
2021/01/10 11:31:37;;;;;;;;;;;4.20;64.20;;;;;;4912978;28;19926;-46
2021/01/10 11:34:07;;;;;;;;;;;4.20;65.00;;;;;;4916265;28;19934;-43
2021/01/10 11:36:34;;;;;;;;;;;4.20;65.60;;;;;;4915090;28;19964;-46
2021/01/10 11:39:01;;;;;;;;;;;4.20;65.60;;;;;;4911151;28;19926;-46
2021/01/10 11:41:29;;;;;;;;;;;4.20;65.70;;;;;;4915036;28;19926;-45
2021/01/10 11:43:56;;;;;;;;;;;4.20;65.70;;;;;;4910612;28;19961;-46
2021/01/10 11:46:22;;;;;;;;;;;4.20;66.00;;;;;;4915728;28;19937;-44
2021/01/10 11:48:49;;;;;;;;;;;4.10;66.20;;;;;;4898638;28;20359;-45
2021/01/10 11:51:16;;;;;;;;;;;4.00;66.80;;;;;;4912511;28;20501;-44
2021/01/10 11:53:47;;;;;;;;;;;3.90;66.30;;;;;;4907374;28;19945;-46
2021/01/10 11:56:13;;;;;;;;;;;3.90;66.40;;;;;;4910322;28;19975;-43
2021/01/10 11:58:40;;;;;;;;;;;4.00;66.50;;;;;;4906030;28;19932;-44
2021/01/10 12:01:07;;;;;;;;;;;3.90;66.40;;;;;;4912616;28;19940;-45
2021/01/10 12:03:35;;;;;;;;;;;3.90;66.90;;;;;;4904979;28;19930;-45
2021/01/10 12:06:01;;;;;;;;;;;3.90;66.50;;;;;;4906544;28;19949;-45
2021/01/10 12:08:28;;;;;;;;;;;3.90;66.10;;;;;;4909305;28;20367;-46
2021/01/10 12:10:55;;;;;;;;;;;4.00;66.30;;;;;;4915750;28;20313;-46
2021/01/10 12:13:21;;;;;;;;;;;4.00;66.20;;;;;;4898646;28;19930;-46
2021/01/10 12:15:47;;;;;;;;;;;4.00;66.20;;;;;;4912663;28;20894;-43
2021/01/10 12:18:14;;;;;;;;;;;4.00;65.90;;;;;;4904743;28;20003;-44
2021/01/10 12:20:41;;;;;;;;;;;4.00;65.80;;;;;;4910058;28;20994;-45
2021/01/10 12:23:08;;;;;;;;;;;4.10;66.10;;;;;;4907766;28;19926;-45
2021/01/10 12:25:34;;;;;;;;;;;4.10;66.40;;;;;;4914009;28;19941;-43
2021/01/10 12:28:00;;;;;;;;;;;4.10;66.20;;;;;;4912429;28;19926;-45
2021/01/10 12:30:29;;;;;;;;;;;4.20;65.80;;;;;;4909751;28;19930;-42
2021/01/10 12:32:57;;;;;;;;;;;4.20;65.80;;;;;;4909342;28;19980;-46
2021/01/10 12:35:24;;;;;;;;;;;4.20;65.90;;;;;;4908143;28;19936;-46
2021/01/10 12:37:51;;;;;;;;;;;4.20;65.60;;;;;;4908883;28;19930;-44
2021/01/10 12:40:19;;;;;;;;;;;4.20;65.40;;;;;;4902720;28;19930;-46
2021/01/10 12:42:46;;;;;;;;;;;4.20;65.10;;;;;;4909824;28;20635;-45
2021/01/10 12:45:13;;;;;;;;;;;4.30;65.00;;;;;;4913819;28;19926;-47
2021/01/10 12:47:46;;;;;;;;;;;4.30;65.00;;;;;;4910440;28;20429;-45
2021/01/10 12:50:13;;;;;;;;;;;4.40;64.80;;;;;;4909626;28;19940;-46
2021/01/10 12:52:42;;;;;;;;;;;4.40;64.50;;;;;;4905986;28;19940;-43
2021/01/10 12:55:08;;;;;;;;;;;4.40;64.10;;;;;;4911255;28;19937;-45
2021/01/10 12:57:37;;;;;;;;;;;4.40;63.80;;;;;;4913645;28;19977;-46
2021/01/10 13:00:07;;;;;;;;;;;4.40;64.10;;;;;;4911394;28;20383;-42
2021/01/10 13:02:33;;;;;;;;;;;4.50;64.20;;;;;;4927641;28;20397;-44
2021/01/10 13:04:59;;;;;;;;;;;4.50;63.80;;;;;;4916903;28;20041;-46
2021/01/10 13:07:26;;;;;;;;;;;4.60;64.20;;;;;;4912200;28;19934;-46
2021/01/10 13:09:52;;;;;;;;;;;4.60;64.40;;;;;;4909906;28;19933;-46
2021/01/10 13:12:19;;;;;;;;;;;4.60;63.60;;;;;;4913922;28;19965;-45
2021/01/10 13:14:45;;;;;;;;;;;4.70;63.40;;;;;;4916084;28;19941;-47
2021/01/10 13:17:11;;;;;;;;;;;4.70;63.00;;;;;;4908053;28;20382;-45
2021/01/10 13:19:41;;;;;;;;;;;4.80;62.20;;;;;;4911288;28;20401;-43
2021/01/10 13:22:08;;;;;;;;;;;4.80;62.30;;;;;;4914499;28;19945;-44
2021/01/10 13:24:35;;;;;;;;;;;4.90;62.00;;;;;;4908458;28;19934;-45
2021/01/10 13:27:01;;;;;;;;;;;4.90;61.90;;;;;;4913206;28;20020;-44
2021/01/10 13:29:28;;;;;;;;;;;4.90;61.70;;;;;;4912191;28;19930;-44
2021/01/10 13:31:58;;;;;;;;;;;5.00;61.90;;;;;;4912834;28;20397;-42
2021/01/10 13:34:27;;;;;;;;;;;5.00;61.70;;;;;;4909402;28;20020;-45
2021/01/10 13:36:59;;;;;;;;;;;5.00;61.30;;;;;;4906449;28;22325;-42
2021/01/10 13:39:26;;;;;;;;;;;5.00;61.20;;;;;;4910661;28;20025;-46
2021/01/10 13:41:53;;;;;;;;;;;5.10;62.00;;;;;;4913415;28;19926;-45
2021/01/10 13:44:19;;;;;;;;;;;5.10;61.00;;;;;;4913078;28;19933;-45
2021/01/10 13:46:46;;;;;;;;;;;5.10;60.60;;;;;;4910658;28;19934;-46
2021/01/10 13:49:15;;;;;;;;;;;5.20;60.80;;;;;;4909774;28;20985;-44
2021/01/10 13:51:41;;;;;;;;;;;5.20;60.60;;;;;;4924310;28;21421;-44
2021/01/10 13:54:08;;;;;;;;;;;5.30;60.50;;;;;;4908515;28;19930;-44
2021/01/10 13:56:36;;;;;;;;;;;5.30;60.10;;;;;;4901567;28;19934;-44
2021/01/10 13:59:07;;;;;;;;;;;5.20;59.20;;;;;;4908522;28;19958;-45
2021/01/10 14:01:37;;;;;;;;;;;5.20;59.50;;;;;;4904440;28;19934;-46
2021/01/10 14:04:05;;;;;;;;;;;5.30;59.70;;;;;;4902120;28;19938;-42
2021/01/10 14:06:34;;;;;;;;;;;5.30;60.20;;;;;;4902213;28;20307;-44
2021/01/10 14:09:03;;;;;;;;;;;5.40;60.60;;;;;;4909507;28;20287;-43
2021/01/10 14:11:30;;;;;;;;;;;5.30;60.00;;;;;;4895670;28;19930;-43
2021/01/10 14:13:59;;;;;;;;;;;5.40;59.90;;;;;;4905916;28;19930;-45
2021/01/10 14:16:26;;;;;;;;;;;5.40;59.50;;;;;;4907420;28;20565;-43
2021/01/10 14:18:54;;;;;;;;;;;5.40;59.40;;;;;;4906925;28;19952;-44
2021/01/10 14:21:33;;;;;;;;;;;5.40;59.70;;;;;;4912235;28;20021;-44
2021/01/10 14:24:01;;;;;;;;;;;5.50;59.40;;;;;;4910075;28;19930;-45
2021/01/10 14:26:38;;;;;;;;;;;5.50;59.10;;;;;;4899518;28;22207;-45
2021/01/10 14:29:14;;;;;;;;;;;5.40;58.80;;;;;;4906203;28;19926;-44
2021/01/10 14:31:48;;;;;;;;;;;5.40;59.50;;;;;;4901327;28;19977;-47
2021/01/10 14:34:16;;;;;;;;;;;5.40;59.80;;;;;;4906891;28;20060;-45
2021/01/10 14:36:42;;;;;;;;;;;5.50;59.60;;;;;;4909898;28;19934;-46
2021/01/10 14:39:09;;;;;;;;;;;5.50;59.50;;;;;;4923727;28;19992;-44